Main page
METAR-TAF:

METAR-TAF

Airports :

Grozny Airport

Grozny, Russia

latitude: 43-23-18N, longitude: 045-41-59E, elevation: 167 m

Current weather observation

The report was made 13 minutes ago, at 16:30 UTC
Wind 6 kt from the Southeast
Temperature 29°C
Humidity 35%
Pressure 1009 hPa
Visibility 10 km or more
no clouds below 1500 m and no cumulonimbus

METAR: URMG 231630Z 13003MPS CAVOK 29/12 Q1009 R08/090070 NOSIG RMK QFE742/0989

Time: 19:43 (16:43 UTC)

Forecast

The report was made 2 hours and 43 minutes ago, at 14:00 UTC
Forecast valid from 23 at 15 UTC to 23 at 24 UTC
Wind 6 kt from the West/Northwest with gusts up to 16 kt
Visibility 10 km or more
Scattered clouds at a height of 6000 ft

TAF: URMG 231400Z 2315/2324 30003G08MPS 9999 SCT060

Weather observations and forecasts of more than 4000 airports (METAR and TAF reports).

The available stations are represented by yellow and red dots on the map.

Hover mouse over dot to see the name of the station.

Then click to see weather observations and forecasts.

To change the map : click on the green buttons with a black cross to zoom in, on the green button with a dash to zoom out, or on the green arrows for adjacent maps.


METAR-TAF: